Time;durP1;ratioP1;P1;durP2;ratioP2;P2;SDS_P1;SDS_P2;PMS_P1;PMS_P2;Temp;Humidity;BMP_temperature;BMP_pressure;BME280_temperature;BME280_humidity;BME280_pressure;Samples;Min_cycle;Max_cycle;Signal;HPM_P1;HPM_P2
2024/04/16 00:01:37;;;;;;;1.38;0.40;;;8.50;99.90;;;;;;5318534;26;20367;-75
2024/04/16 00:04:03;;;;;;;3.05;0.50;;;8.50;99.90;;;;;;5349005;26;20004;-76
2024/04/16 00:06:28;;;;;;;3.72;0.68;;;8.40;99.90;;;;;;5348633;26;20071;-76
2024/04/16 00:08:54;;;;;;;2.92;0.50;;;8.40;99.90;;;;;;5349603;26;20495;-76
2024/04/16 00:11:20;;;;;;;1.95;0.65;;;8.50;99.90;;;;;;5348858;26;20012;-76
2024/04/16 00:13:46;;;;;;;1.50;0.35;;;8.40;99.90;;;;;;5349479;26;20035;-76
2024/04/16 00:16:11;;;;;;;3.83;0.60;;;8.30;99.90;;;;;;5318388;26;20013;-76
2024/04/16 00:18:37;;;;;;;1.45;0.40;;;8.40;99.90;;;;;;5319225;26;20017;-76
2024/04/16 00:21:03;;;;;;;5.40;0.65;;;8.40;99.90;;;;;;5318526;26;20448;-76
2024/04/16 00:23:28;;;;;;;1.65;0.47;;;8.40;99.90;;;;;;5316827;26;20009;-76
2024/04/16 00:25:54;;;;;;;3.00;0.50;;;8.40;99.90;;;;;;5318615;26;19993;-76
2024/04/16 00:28:20;;;;;;;3.40;0.60;;;8.40;99.90;;;;;;5348242;26;20001;-75
2024/04/16 00:30:45;;;;;;;2.90;0.90;;;8.40;99.90;;;;;;5318200;26;20008;-76
2024/04/16 00:33:11;;;;;;;2.55;0.60;;;8.40;99.90;;;;;;5317500;26;20240;-75
2024/04/16 00:35:37;;;;;;;3.88;0.77;;;8.50;99.90;;;;;;5348702;26;20414;-76
2024/04/16 00:38:03;;;;;;;3.70;0.60;;;8.50;99.90;;;;;;5348888;26;20025;-76
2024/04/16 00:40:29;;;;;;;2.95;0.88;;;8.50;99.90;;;;;;5317738;26;20327;-76
2024/04/16 00:42:54;;;;;;;4.47;0.57;;;8.50;99.90;;;;;;5318344;26;20013;-76
2024/04/16 00:45:20;;;;;;;1.48;0.50;;;8.50;99.90;;;;;;5348150;26;20324;-76
2024/04/16 00:47:46;;;;;;;6.82;0.95;;;8.50;99.90;;;;;;5317622;26;19997;-76
2024/04/16 00:50:13;;;;;;;2.85;0.70;;;8.50;99.90;;;;;;5317402;26;20367;-75
2024/04/16 00:52:40;;;;;;;4.47;0.70;;;8.60;99.90;;;;;;5348629;26;20001;-76
2024/04/16 00:55:07;;;;;;;9.30;1.17;;;8.60;99.90;;;;;;5318055;26;20004;-76
2024/04/16 00:57:33;;;;;;;8.13;1.00;;;8.70;99.90;;;;;;5347750;26;20344;-76
2024/04/16 00:59:59;;;;;;;5.20;0.82;;;8.70;99.90;;;;;;5317968;26;19993;-76
2024/04/16 01:02:24;;;;;;;5.07;1.00;;;8.70;99.90;;;;;;5317562;26;20011;-75
2024/04/16 01:04:50;;;;;;;2.42;0.60;;;8.70;99.90;;;;;;5348416;26;20004;-75
2024/04/16 01:07:16;;;;;;;6.10;1.13;;;8.70;99.90;;;;;;5317395;26;20310;-76
2024/04/16 01:09:42;;;;;;;3.03;0.75;;;8.70;99.90;;;;;;5347856;26;20008;-76
2024/04/16 01:12:08;;;;;;;1.35;0.70;;;8.70;99.90;;;;;;5348058;26;20414;-76
2024/04/16 01:14:33;;;;;;;3.45;0.60;;;8.70;99.90;;;;;;5347361;26;20047;-76
2024/04/16 01:16:59;;;;;;;5.22;0.93;;;8.70;99.90;;;;;;5347771;26;20024;-76
2024/04/16 01:19:24;;;;;;;5.93;0.93;;;8.60;99.90;;;;;;5346932;26;20000;-76
2024/04/16 01:21:50;;;;;;;3.30;0.70;;;8.70;99.90;;;;;;5347880;26;20025;-76
2024/04/16 01:24:16;;;;;;;4.43;1.42;;;8.70;99.90;;;;;;5317111;26;20005;-76
2024/04/16 01:26:42;;;;;;;7.28;1.40;;;8.70;99.90;;;;;;5317547;26;19997;-76
2024/04/16 01:29:08;;;;;;;5.63;1.13;;;8.70;99.90;;;;;;5348060;26;20008;-76
2024/04/16 01:31:33;;;;;;;4.05;1.00;;;8.70;99.90;;;;;;5347747;26;19997;-76
2024/04/16 01:33:59;;;;;;;7.97;1.00;;;8.70;99.90;;;;;;5317240;26;20421;-76
2024/04/16 01:36:25;;;;;;;3.90;0.90;;;8.70;99.90;;;;;;5316491;26;20015;-76
2024/04/16 01:38:51;;;;;;;7.13;0.93;;;8.70;99.90;;;;;;5317146;26;20001;-76
2024/04/16 01:41:17;;;;;;;4.43;0.90;;;8.70;99.90;;;;;;5316528;26;20033;-76
2024/04/16 01:43:43;;;;;;;6.60;0.80;;;8.80;99.90;;;;;;5347448;26;20008;-76
2024/04/16 01:46:09;;;;;;;4.32;1.00;;;8.80;99.90;;;;;;5316882;26;20488;-75
2024/04/16 01:48:35;;;;;;;4.40;0.80;;;8.80;99.90;;;;;;5316440;26;20430;-76
2024/04/16 01:51:01;;;;;;;4.03;0.98;;;8.80;99.90;;;;;;5317198;26;20012;-76
2024/04/16 01:53:27;;;;;;;3.17;0.70;;;8.80;99.90;;;;;;5346595;26;20453;-76
2024/04/16 01:55:52;;;;;;;8.95;1.77;;;8.80;99.90;;;;;;5317009;26;20363;-76
2024/04/16 01:58:18;;;;;;;2.53;0.90;;;8.80;99.90;;;;;;5346664;26;20434;-75
2024/04/16 02:00:44;;;;;;;4.93;0.82;;;8.80;99.90;;;;;;5347430;26;20026;-75
2024/04/16 02:03:09;;;;;;;6.50;1.13;;;8.70;99.90;;;;;;5316566;26;20001;-76
2024/04/16 02:05:38;;;;;;;6.85;1.58;;;8.70;99.90;;;;;;5315847;26;20001;-75
2024/04/16 02:08:04;;;;;;;5.85;1.17;;;8.70;99.90;;;;;;5347149;26;19998;-75
2024/04/16 02:10:30;;;;;;;8.82;0.82;;;8.70;99.90;;;;;;5346440;26;20456;-75
2024/04/16 02:12:55;;;;;;;5.32;0.95;;;8.70;99.90;;;;;;5316421;26;20007;-76
2024/04/16 02:15:21;;;;;;;3.90;0.80;;;8.70;99.90;;;;;;5316004;26;20007;-75
2024/04/16 02:17:47;;;;;;;8.13;1.05;;;8.70;99.90;;;;;;5316577;26;19997;-76
2024/04/16 02:20:13;;;;;;;6.40;0.95;;;8.70;99.90;;;;;;5316769;26;20074;-76
2024/04/16 02:22:38;;;;;;;5.00;1.67;;;8.70;99.90;;;;;;5314941;26;20007;-75
2024/04/16 02:25:10;;;;;;;5.10;1.10;;;8.70;99.90;;;;;;5316531;26;19989;-75
2024/04/16 02:27:35;;;;;;;5.50;1.02;;;8.60;99.90;;;;;;5315739;26;19996;-76
2024/04/16 02:30:01;;;;;;;4.35;1.00;;;8.70;99.90;;;;;;5346922;26;20003;-75
2024/04/16 02:32:26;;;;;;;3.92;0.80;;;8.60;99.90;;;;;;5346198;26;20409;-76
2024/04/16 02:34:52;;;;;;;10.23;1.02;;;8.60;99.90;;;;;;5346877;26;20005;-76
2024/04/16 02:37:17;;;;;;;5.35;1.08;;;8.50;99.90;;;;;;5346294;26;20011;-76
2024/04/16 02:39:43;;;;;;;5.40;1.38;;;8.60;99.90;;;;;;5347138;26;19993;-75
2024/04/16 02:42:08;;;;;;;4.68;1.08;;;8.50;99.90;;;;;;5346766;26;20074;-76
2024/04/16 02:44:34;;;;;;;4.85;1.00;;;8.50;99.90;;;;;;5315375;26;19997;-76
2024/04/16 02:47:00;;;;;;;6.05;0.75;;;8.50;99.90;;;;;;5316321;26;20001;-76
2024/04/16 02:49:25;;;;;;;5.95;1.02;;;8.50;99.90;;;;;;5315587;26;20025;-76
2024/04/16 02:51:51;;;;;;;6.65;1.20;;;8.40;99.90;;;;;;5316089;26;20015;-76
2024/04/16 02:54:16;;;;;;;6.75;1.40;;;8.30;99.90;;;;;;5315498;26;20000;-75
2024/04/16 02:56:42;;;;;;;5.63;0.95;;;8.30;99.90;;;;;;5346594;26;20001;-76
2024/04/16 02:59:08;;;;;;;4.38;0.93;;;8.30;99.90;;;;;;5346398;26;19997;-76
2024/04/16 03:01:33;;;;;;;9.18;1.55;;;8.30;99.90;;;;;;5315463;26;20070;-76
2024/04/16 03:03:59;;;;;;;3.05;0.95;;;8.20;99.90;;;;;;5346534;26;20410;-76
2024/04/16 03:06:24;;;;;;;2.35;0.50;;;8.10;99.90;;;;;;5345691;26;19996;-76
2024/04/16 03:08:51;;;;;;;3.22;0.80;;;8.20;99.90;;;;;;5316325;26;20001;-76
2024/04/16 03:11:16;;;;;;;2.78;0.75;;;8.10;99.90;;;;;;5346099;26;20046;-76
2024/04/16 03:13:44;;;;;;;6.40;0.73;;;8.10;99.90;;;;;;5316023;26;20001;-76
2024/04/16 03:16:10;;;;;;;6.47;1.17;;;8.00;99.90;;;;;;5316369;26;20464;-76
2024/04/16 03:18:35;;;;;;;6.03;0.90;;;8.00;99.90;;;;;;5345917;26;19996;-76
2024/04/16 03:21:02;;;;;;;5.35;1.23;;;7.90;99.90;;;;;;5316315;26;20396;-76
2024/04/16 03:23:27;;;;;;;6.40;0.93;;;8.00;99.90;;;;;;5345993;26;20000;-76
2024/04/16 03:25:53;;;;;;;5.07;0.88;;;8.00;99.90;;;;;;5316482;26;20011;-76
2024/04/16 03:28:18;;;;;;;7.20;0.68;;;8.00;99.90;;;;;;5345955;26;20319;-76
2024/04/16 03:30:44;;;;;;;5.70;0.80;;;7.90;99.90;;;;;;5346677;26;20076;-76
2024/04/16 03:33:09;;;;;;;5.38;0.95;;;7.90;99.90;;;;;;5347829;26;19997;-76
2024/04/16 03:35:35;;;;;;;4.00;0.85;;;7.80;99.90;;;;;;5318323;26;20003;-76
2024/04/16 03:38:01;;;;;;;4.60;0.65;;;7.80;99.90;;;;;;5319002;26;20341;-75
2024/04/16 03:40:27;;;;;;;4.07;0.80;;;7.80;99.90;;;;;;5348764;26;19993;-75
2024/04/16 03:42:52;;;;;;;8.85;1.00;;;7.80;99.90;;;;;;5318947;26;19989;-75
2024/04/16 03:45:18;;;;;;;4.95;0.90;;;7.70;99.90;;;;;;5319052;26;19997;-75
2024/04/16 03:47:44;;;;;;;3.70;0.70;;;7.70;99.90;;;;;;5318893;26;20001;-76
2024/04/16 03:50:10;;;;;;;4.30;0.90;;;7.70;99.90;;;;;;5318777;26;20001;-75
2024/04/16 03:52:35;;;;;;;10.02;1.10;;;7.70;99.90;;;;;;5348605;26;20019;-76
2024/04/16 03:55:01;;;;;;;7.78;1.08;;;7.70;99.90;;;;;;5318392;26;19997;-75
2024/04/16 03:57:27;;;;;;;4.43;0.90;;;7.70;99.90;;;;;;5348658;26;20020;-76
2024/04/16 04:02:37;;;;;;;8.43;1.15;;;7.70;99.90;;;;;;5348653;26;20067;-75
2024/04/16 04:05:03;;;;;;;9.30;1.30;;;7.70;99.90;;;;;;5348956;26;20481;-76
2024/04/16 04:07:29;;;;;;;7.88;1.08;;;7.70;99.90;;;;;;5348041;26;20007;-75
2024/04/16 04:09:54;;;;;;;7.25;0.95;;;7.60;99.90;;;;;;5348862;26;20333;-76
2024/04/16 04:12:20;;;;;;;4.78;1.17;;;7.70;99.90;;;;;;5317971;26;20481;-76
2024/04/16 04:14:45;;;;;;;4.97;1.00;;;7.70;99.90;;;;;;5317387;26;20070;-76
2024/04/16 04:17:11;;;;;;;9.32;1.45;;;7.70;99.90;;;;;;5317001;26;20400;-75
2024/04/16 04:19:37;;;;;;;9.68;1.00;;;7.70;99.90;;;;;;5316107;26;19996;-76
2024/04/16 04:22:02;;;;;;;5.60;0.80;;;7.70;99.90;;;;;;5347812;26;20030;-76
2024/04/16 04:24:28;;;;;;;5.65;1.02;;;7.70;99.90;;;;;;5317633;26;20074;-76
2024/04/16 04:26:54;;;;;;;3.25;0.93;;;7.70;99.90;;;;;;5318612;26;20008;-76
2024/04/16 04:29:19;;;;;;;7.50;1.30;;;7.70;99.90;;;;;;5318493;26;20334;-76
2024/04/16 04:31:45;;;;;;;6.05;0.85;;;7.70;99.90;;;;;;5318071;26;19997;-76
2024/04/16 04:34:10;;;;;;;9.05;1.15;;;7.70;99.90;;;;;;5318589;26;20008;-77
2024/04/16 04:36:36;;;;;;;5.35;0.98;;;7.70;99.90;;;;;;5318069;26;20008;-76
2024/04/16 04:39:02;;;;;;;3.83;0.93;;;7.70;99.90;;;;;;5348684;26;20428;-76
2024/04/16 04:41:27;;;;;;;5.53;0.90;;;7.60;99.90;;;;;;5348497;26;19997;-76
2024/04/16 04:43:54;;;;;;;5.68;0.90;;;7.60;99.90;;;;;;5348176;26;20071;-76
2024/04/16 04:46:19;;;;;;;7.78;1.15;;;7.60;99.90;;;;;;5317600;26;20029;-76
2024/04/16 04:48:45;;;;;;;7.68;1.10;;;7.60;99.90;;;;;;5317529;26;20011;-76
2024/04/16 04:51:12;;;;;;;4.53;1.00;;;7.50;99.90;;;;;;5318142;26;19997;-76
2024/04/16 04:53:38;;;;;;;7.63;0.95;;;7.50;99.90;;;;;;5317661;26;19993;-76
2024/04/16 04:56:04;;;;;;;9.05;1.40;;;7.50;99.90;;;;;;5348372;26;20029;-75
2024/04/16 04:58:30;;;;;;;9.23;1.38;;;7.50;99.90;;;;;;5317156;26;20005;-75
2024/04/16 05:00:55;;;;;;;2.83;0.85;;;7.50;99.90;;;;;;5348293;26;20008;-76
2024/04/16 05:03:21;;;;;;;5.00;0.93;;;7.50;99.90;;;;;;5317493;26;20000;-76
2024/04/16 05:05:47;;;;;;;4.45;1.20;;;7.50;99.90;;;;;;5316694;26;19997;-76
2024/04/16 05:08:13;;;;;;;4.53;1.20;;;7.50;99.90;;;;;;5317252;26;20005;-76
2024/04/16 05:10:38;;;;;;;5.15;1.10;;;7.60;99.90;;;;;;5317711;26;20318;-75
2024/04/16 05:13:04;;;;;;;8.68;0.93;;;7.50;99.90;;;;;;5348212;26;20070;-76
2024/04/16 05:15:30;;;;;;;5.80;1.35;;;7.60;99.90;;;;;;5316782;26;20009;-76
2024/04/16 05:17:55;;;;;;;9.05;1.20;;;7.60;99.90;;;;;;5317569;26;20017;-75
2024/04/16 05:20:21;;;;;;;7.10;1.30;;;7.60;99.90;;;;;;5317417;26;20001;-76
2024/04/16 05:22:48;;;;;;;6.05;1.20;;;7.50;99.90;;;;;;5316635;26;20012;-76
2024/04/16 05:25:14;;;;;;;7.07;1.35;;;7.50;99.90;;;;;;5347777;26;19999;-76
2024/04/16 05:27:40;;;;;;;6.32;1.13;;;7.60;99.90;;;;;;5316875;26;20011;-76
2024/04/16 05:30:06;;;;;;;10.27;1.55;;;7.60;99.90;;;;;;5347474;26;20003;-77
2024/04/16 05:32:32;;;;;;;9.13;1.48;;;7.70;99.90;;;;;;5346983;26;20005;-77
2024/04/16 05:34:57;;;;;;;6.70;1.38;;;7.80;99.90;;;;;;5317360;26;20007;-76
2024/04/16 05:37:23;;;;;;;5.75;1.30;;;7.80;99.90;;;;;;5317293;26;20062;-76
2024/04/16 05:39:48;;;;;;;5.50;1.35;;;7.90;99.90;;;;;;5316615;26;20012;-75
2024/04/16 05:42:14;;;;;;;6.07;1.15;;;7.90;99.90;;;;;;5347527;26;20025;-75
2024/04/16 05:44:40;;;;;;;2.80;1.13;;;7.90;99.90;;;;;;5346676;26;20003;-75
2024/04/16 05:47:05;;;;;;;5.88;1.33;;;7.90;99.90;;;;;;5347619;26;20007;-74
2024/04/16 05:49:31;;;;;;;5.05;1.30;;;7.90;99.90;;;;;;5346916;26;20408;-75
2024/04/16 05:51:58;;;;;;;6.45;1.45;;;8.00;99.90;;;;;;5316783;26;19997;-75
2024/04/16 05:54:25;;;;;;;8.32;1.30;;;8.00;99.90;;;;;;5316362;26;20015;-76
2024/04/16 05:56:50;;;;;;;9.30;1.17;;;8.00;99.90;;;;;;5314652;26;19997;-75
2024/04/16 05:59:16;;;;;;;7.82;1.13;;;8.10;99.90;;;;;;5347422;26;20001;-76
2024/04/16 06:01:42;;;;;;;6.72;1.65;;;8.00;99.90;;;;;;5346220;26;20008;-76
2024/04/16 06:04:08;;;;;;;7.50;1.48;;;7.90;99.90;;;;;;5316427;26;20025;-76
2024/04/16 06:06:34;;;;;;;9.23;1.50;;;8.00;99.90;;;;;;5310414;27;19994;-76
2024/04/16 06:08:59;;;;;;;6.22;1.17;;;7.90;99.90;;;;;;5282750;27;20450;-75
2024/04/16 06:11:25;;;;;;;5.80;1.00;;;7.90;99.90;;;;;;5312972;27;20067;-75
2024/04/16 06:13:51;;;;;;;8.55;1.90;;;8.00;99.90;;;;;;5281905;27;19993;-76
2024/04/16 06:16:17;;;;;;;5.30;1.20;;;8.00;99.90;;;;;;5312460;27;20418;-76
2024/04/16 06:18:42;;;;;;;9.18;1.30;;;8.10;99.90;;;;;;5310645;27;20034;-76
2024/04/16 06:21:09;;;;;;;4.38;1.13;;;8.00;99.90;;;;;;5312484;27;19997;-76
2024/04/16 06:23:35;;;;;;;7.43;1.45;;;8.00;99.90;;;;;;5310203;27;20482;-76
2024/04/16 06:26:08;;;;;;;7.05;1.35;;;8.00;99.90;;;;;;5311046;27;19994;-76
2024/04/16 06:28:34;;;;;;;10.25;1.55;;;8.00;99.90;;;;;;5312407;26;19998;-76
2024/04/16 06:31:00;;;;;;;6.28;0.98;;;8.10;99.90;;;;;;5312544;27;19997;-76
2024/04/16 06:33:27;;;;;;;7.80;1.10;;;8.20;99.90;;;;;;5282473;27;20330;-76
2024/04/16 06:35:54;;;;;;;4.00;1.02;;;8.30;99.90;;;;;;5312372;27;20322;-76
2024/04/16 06:38:20;;;;;;;5.18;1.10;;;8.30;99.90;;;;;;5282356;27;20005;-76
2024/04/16 06:40:45;;;;;;;9.02;1.05;;;8.40;99.90;;;;;;5281717;27;19994;-76
2024/04/16 06:43:11;;;;;;;4.75;1.00;;;8.40;99.90;;;;;;5312282;27;20008;-76
2024/04/16 06:45:37;;;;;;;4.43;0.82;;;8.40;99.90;;;;;;5311706;27;20012;-76
2024/04/16 06:48:03;;;;;;;8.00;1.30;;;8.50;99.90;;;;;;5312736;27;20506;-76
2024/04/16 06:50:29;;;;;;;6.82;1.13;;;8.50;99.90;;;;;;5281997;27;19994;-76
2024/04/16 06:52:55;;;;;;;6.07;1.02;;;8.60;99.90;;;;;;5282038;27;20017;-76
2024/04/16 06:55:21;;;;;;;5.45;1.10;;;8.60;99.90;;;;;;5313025;27;20334;-76
2024/04/16 06:57:47;;;;;;;5.38;1.10;;;8.60;99.90;;;;;;5310084;27;20012;-76
2024/04/16 07:00:13;;;;;;;3.83;1.25;;;8.70;99.90;;;;;;5310297;27;19998;-76
2024/04/16 07:02:39;;;;;;;7.57;1.00;;;8.80;99.60;;;;;;5311623;26;20006;-76
2024/04/16 07:05:05;;;;;;;4.75;1.35;;;8.80;99.50;;;;;;5312219;27;20005;-75
2024/04/16 07:07:30;;;;;;;5.38;1.00;;;8.80;99.40;;;;;;5311463;27;20076;-77
2024/04/16 07:09:56;;;;;;;5.85;0.85;;;8.80;99.30;;;;;;5318050;27;20005;-75
2024/04/16 07:12:21;;;;;;;6.55;0.90;;;8.70;99.20;;;;;;5319903;27;20336;-76
2024/04/16 07:14:47;;;;;;;5.97;0.90;;;8.70;99.60;;;;;;5317068;27;19998;-76
2024/04/16 07:17:13;;;;;;;8.15;1.60;;;8.60;99.60;;;;;;5319500;27;19994;-76
2024/04/16 07:19:38;;;;;;;8.52;1.10;;;8.60;99.80;;;;;;5316881;27;20009;-76
2024/04/16 07:22:04;;;;;;;9.13;1.02;;;8.70;99.90;;;;;;5317646;27;20034;-76
2024/04/16 07:24:29;;;;;;;6.90;1.00;;;8.70;99.90;;;;;;5317275;27;20002;-76
2024/04/16 07:26:55;;;;;;;4.10;1.00;;;8.70;99.90;;;;;;5316903;27;20030;-76
2024/04/16 07:29:20;;;;;;;5.60;1.00;;;8.70;99.90;;;;;;5317378;27;20013;-76
2024/04/16 07:31:46;;;;;;;8.95;1.35;;;8.60;99.90;;;;;;5316787;27;20034;-76
2024/04/16 07:34:12;;;;;;;3.13;0.80;;;8.50;99.90;;;;;;5317203;27;20002;-76
2024/04/16 07:36:39;;;;;;;3.55;0.68;;;8.50;99.90;;;;;;5316628;27;20122;-76
2024/04/16 07:39:05;;;;;;;8.07;1.10;;;8.50;99.90;;;;;;5319084;26;20005;-76
2024/04/16 07:41:30;;;;;;;3.05;0.80;;;8.50;99.90;;;;;;5316961;27;20067;-76
2024/04/16 07:43:56;;;;;;;4.43;0.80;;;8.50;99.90;;;;;;5288025;27;20005;-76
2024/04/16 07:46:22;;;;;;;4.40;0.60;;;8.60;99.90;;;;;;5319025;27;20001;-76
2024/04/16 07:48:47;;;;;;;6.82;1.02;;;8.50;99.90;;;;;;5318134;27;19997;-76
2024/04/16 07:51:13;;;;;;;9.43;1.58;;;8.40;99.90;;;;;;5318723;27;20008;-76
2024/04/16 07:53:38;;;;;;;6.97;1.00;;;8.30;99.90;;;;;;5316349;27;20001;-77
2024/04/16 07:56:05;;;;;;;5.18;1.20;;;8.30;99.90;;;;;;5316886;27;20409;-76
2024/04/16 07:58:31;;;;;;;4.95;1.00;;;8.30;99.90;;;;;;5316967;27;20012;-76
2024/04/16 08:00:56;;;;;;;7.50;1.02;;;8.20;99.90;;;;;;5318076;27;19998;-76
2024/04/16 08:03:22;;;;;;;6.60;1.15;;;8.20;99.90;;;;;;5318318;27;20071;-76
2024/04/16 08:05:47;;;;;;;7.55;0.82;;;8.20;99.90;;;;;;5315951;27;20001;-77
2024/04/16 08:08:14;;;;;;;2.80;0.68;;;8.20;99.90;;;;;;5316928;27;20067;-76
2024/04/16 08:10:40;;;;;;;5.65;0.88;;;8.30;99.90;;;;;;5316219;27;19997;-76
2024/04/16 08:13:06;;;;;;;2.28;0.73;;;8.30;99.90;;;;;;5318136;27;20461;-75
2024/04/16 08:15:32;;;;;;;5.80;0.70;;;8.30;99.90;;;;;;5316657;27;19993;-76
2024/04/16 08:17:57;;;;;;;5.95;0.90;;;8.30;99.90;;;;;;5316056;27;19997;-76
2024/04/16 08:20:23;;;;;;;10.18;1.20;;;8.40;99.90;;;;;;5314230;27;20005;-76
2024/04/16 08:22:48;;;;;;;4.75;1.10;;;8.40;99.90;;;;;;5313825;27;20001;-76
2024/04/16 08:25:14;;;;;;;6.40;1.00;;;8.40;99.90;;;;;;5312974;27;20426;-76
2024/04/16 08:27:40;;;;;;;5.32;1.10;;;8.40;99.90;;;;;;5311963;27;20002;-76
2024/04/16 08:30:06;;;;;;;8.00;0.98;;;8.30;99.90;;;;;;5314427;27;19994;-76
2024/04/16 08:32:31;;;;;;;5.75;0.90;;;8.30;99.90;;;;;;5312588;27;20334;-76
2024/04/16 08:34:57;;;;;;;4.20;0.90;;;8.40;99.90;;;;;;5312091;27;20007;-76
2024/04/16 08:37:22;;;;;;;5.60;1.02;;;8.40;99.90;;;;;;5312779;27;20001;-76
2024/04/16 08:39:48;;;;;;;5.07;0.93;;;8.40;99.90;;;;;;5312066;27;20029;-76
2024/04/16 08:42:16;;;;;;;5.30;0.98;;;8.30;99.90;;;;;;5312284;27;20008;-76
2024/04/16 08:44:42;;;;;;;4.13;0.93;;;8.40;99.90;;;;;;5313150;27;20083;-76
2024/04/16 08:47:09;;;;;;;4.90;0.95;;;8.40;99.90;;;;;;5314403;27;20002;-76
2024/04/16 08:49:36;;;;;;;3.63;0.82;;;8.50;99.90;;;;;;5284178;27;19990;-75
2024/04/16 08:52:03;;;;;;;5.72;0.90;;;8.50;99.90;;;;;;5312334;27;20009;-76
2024/04/16 08:54:29;;;;;;;5.82;0.82;;;8.50;99.90;;;;;;5314162;27;19994;-76
2024/04/16 08:56:55;;;;;;;4.03;1.30;;;8.60;99.90;;;;;;5313627;27;20060;-76
2024/04/16 08:59:20;;;;;;;4.50;0.80;;;8.60;99.90;;;;;;5314344;27;20001;-76
2024/04/16 09:01:49;;;;;;;6.28;1.08;;;8.70;99.90;;;;;;5312143;27;20010;-76
2024/04/16 09:04:16;;;;;;;13.15;1.10;;;8.80;99.90;;;;;;5313883;27;20001;-76
2024/04/16 09:06:46;;;;;;;3.28;0.90;;;8.90;99.90;;;;;;5334162;26;19997;-77
2024/04/16 09:09:12;;;;;;;3.45;1.23;;;8.90;99.90;;;;;;5317783;26;20008;-76
2024/04/16 09:11:40;;;;;;;4.43;0.90;;;8.90;99.90;;;;;;5317493;26;20001;-77
2024/04/16 09:14:06;;;;;;;3.10;1.10;;;8.80;99.90;;;;;;5317751;26;20318;-76
2024/04/16 09:16:32;;;;;;;9.45;1.33;;;8.80;99.90;;;;;;5317944;26;19997;-76
2024/04/16 09:19:07;;;;;;;5.55;1.02;;;8.80;99.90;;;;;;5316828;26;20502;-75
2024/04/16 09:21:34;;;;;;;2.97;0.90;;;8.80;99.90;;;;;;5317775;26;19999;-76
2024/04/16 09:24:01;;;;;;;8.60;1.17;;;8.80;99.90;;;;;;5317028;26;20001;-76
2024/04/16 09:26:26;;;;;;;5.38;0.93;;;8.90;99.90;;;;;;5348293;26;20319;-76
2024/04/16 09:28:52;;;;;;;2.13;0.50;;;8.90;99.90;;;;;;5317259;26;19997;-76
2024/04/16 09:31:18;;;;;;;6.45;0.63;;;8.90;99.90;;;;;;5317443;26;20315;-76
2024/04/16 09:33:46;;;;;;;2.75;0.70;;;8.80;99.90;;;;;;5316958;26;20032;-76
2024/04/16 09:36:16;;;;;;;2.35;0.50;;;8.70;99.90;;;;;;5317577;26;19993;-76
2024/04/16 09:38:45;;;;;;;3.65;0.55;;;8.70;99.90;;;;;;5347308;26;20001;-77
2024/04/16 09:41:12;;;;;;;3.72;0.80;;;8.70;99.90;;;;;;5317427;26;20017;-76
2024/04/16 09:43:40;;;;;;;3.65;0.50;;;8.80;99.90;;;;;;5317474;26;19997;-76
2024/04/16 09:46:08;;;;;;;4.53;0.70;;;8.90;99.90;;;;;;5348011;26;20025;-76
2024/04/16 09:48:38;;;;;;;2.63;0.60;;;8.90;99.90;;;;;;5342791;26;20453;-76
2024/04/16 09:51:05;;;;;;;0.95;0.45;;;8.90;99.90;;;;;;5300691;26;20005;-76
2024/04/16 09:53:34;;;;;;;1.70;0.50;;;9.00;99.90;;;;;;5296720;26;20471;-76
2024/04/16 09:56:04;;;;;;;2.33;0.65;;;9.00;99.90;;;;;;5296153;27;20310;-77
2024/04/16 09:58:32;;;;;;;8.80;0.60;;;9.00;99.90;;;;;;5282972;27;19998;-76
2024/04/16 10:00:59;;;;;;;3.17;0.65;;;9.00;99.90;;;;;;5282592;27;20011;-76
2024/04/16 10:03:27;;;;;;;2.17;0.57;;;9.10;99.90;;;;;;5282774;27;19998;-76
2024/04/16 10:05:55;;;;;;;3.95;0.80;;;9.10;99.90;;;;;;5312068;27;20067;-77
2024/04/16 10:08:25;;;;;;;3.88;0.50;;;9.10;99.90;;;;;;5283033;27;19993;-76
2024/04/16 10:10:57;;;;;;;2.63;0.60;;;9.10;99.90;;;;;;5312683;27;20000;-76
2024/04/16 10:13:27;;;;;;;3.25;0.65;;;8.90;99.90;;;;;;5282901;27;19994;-76
2024/04/16 10:15:53;;;;;;;4.93;0.93;;;8.90;99.90;;;;;;5282382;27;20013;-76
2024/04/16 10:18:20;;;;;;;6.13;0.90;;;8.90;99.90;;;;;;5282527;27;20423;-76
2024/04/16 10:20:51;;;;;;;3.90;0.80;;;9.00;99.90;;;;;;5281853;27;20005;-76
2024/04/16 10:23:18;;;;;;;4.65;1.00;;;9.10;99.90;;;;;;5287267;27;20016;-76
2024/04/16 10:25:51;;;;;;;4.55;0.50;;;9.20;99.90;;;;;;5300135;26;20015;-76
2024/04/16 10:28:25;;;;;;;5.95;0.75;;;9.20;99.90;;;;;;5300592;26;20001;-75
2024/04/16 10:31:02;;;;;;;2.58;0.82;;;9.30;99.90;;;;;;5302901;26;20013;-76
2024/04/16 10:33:35;;;;;;;6.82;1.30;;;9.30;99.90;;;;;;5312493;27;20030;-76
2024/04/16 10:36:04;;;;;;;5.28;0.82;;;9.30;99.90;;;;;;5311903;27;20079;-76
2024/04/16 10:38:33;;;;;;;3.63;0.73;;;9.40;99.90;;;;;;5312423;27;20005;-76
2024/04/16 10:40:59;;;;;;;2.97;0.80;;;9.50;99.90;;;;;;5332247;26;20009;-76
2024/04/16 10:43:27;;;;;;;5.50;0.63;;;9.50;99.90;;;;;;5327222;26;20040;-75
2024/04/16 10:45:54;;;;;;;3.95;0.80;;;9.40;99.90;;;;;;5290708;26;20033;-76
2024/04/16 10:48:21;;;;;;;3.80;0.73;;;9.40;99.90;;;;;;5323589;26;20001;-75
2024/04/16 10:50:48;;;;;;;5.50;0.90;;;9.40;99.90;;;;;;5296177;26;20016;-75
2024/04/16 10:53:19;;;;;;;5.05;1.25;;;9.30;99.90;;;;;;5312133;27;20022;-75
2024/04/16 10:55:46;;;;;;;3.20;0.70;;;9.20;99.90;;;;;;5311645;27;20029;-75
2024/04/16 10:58:13;;;;;;;5.50;1.38;;;9.20;99.90;;;;;;5281151;27;20005;-75
2024/04/16 11:00:39;;;;;;;5.55;0.73;;;9.20;99.90;;;;;;5281290;27;19998;-75
2024/04/16 11:03:05;;;;;;;2.42;0.77;;;9.20;99.90;;;;;;5280846;27;20009;-75
2024/04/16 11:05:31;;;;;;;1.02;0.70;;;9.30;99.90;;;;;;5297047;26;19997;-75
2024/04/16 11:07:56;;;;;;;3.40;0.98;;;9.30;99.90;;;;;;5316586;26;20012;-75
2024/04/16 11:10:22;;;;;;;1.70;0.85;;;9.30;99.90;;;;;;5345945;26;20428;-75
2024/04/16 11:12:48;;;;;;;0.93;0.65;;;9.40;99.90;;;;;;5314073;26;20009;-76
2024/04/16 11:15:14;;;;;;;3.50;1.45;;;9.40;99.90;;;;;;5315100;26;20532;-75
2024/04/16 11:17:39;;;;;;;2.95;0.77;;;9.40;99.90;;;;;;5312587;26;20533;-75
2024/04/16 11:20:08;;;;;;;2.08;0.70;;;9.40;99.90;;;;;;5313222;26;20078;-75
2024/04/16 11:22:34;;;;;;;4.50;0.88;;;9.40;99.90;;;;;;5345090;26;20000;-75
2024/04/16 11:24:59;;;;;;;3.72;1.42;;;9.40;99.90;;;;;;5313728;26;20001;-76
2024/04/16 11:27:25;;;;;;;3.65;0.70;;;9.30;99.90;;;;;;5314023;26;20005;-76
2024/04/16 11:29:51;;;;;;;2.35;0.70;;;9.40;99.90;;;;;;5313834;26;20421;-76
2024/04/16 11:32:17;;;;;;;5.63;0.90;;;9.40;99.90;;;;;;5344544;26;20460;-75
2024/04/16 11:34:44;;;;;;;2.17;0.60;;;9.40;99.90;;;;;;5344886;26;20008;-76
2024/04/16 11:37:11;;;;;;;4.72;0.85;;;9.40;99.90;;;;;;5313422;26;20017;-75
2024/04/16 11:39:38;;;;;;;2.85;0.90;;;9.40;99.90;;;;;;5314173;26;20005;-76
2024/04/16 11:42:05;;;;;;;4.55;0.73;;;9.40;99.90;;;;;;5343878;26;20082;-76
2024/04/16 11:44:33;;;;;;;3.90;0.90;;;9.50;99.90;;;;;;5344334;26;20055;-76
2024/04/16 11:46:59;;;;;;;5.38;0.70;;;9.50;99.90;;;;;;5343521;26;20366;-76
2024/04/16 11:49:25;;;;;;;4.32;0.85;;;9.60;99.90;;;;;;5314782;26;19997;-75
2024/04/16 11:51:51;;;;;;;3.28;0.60;;;9.70;99.90;;;;;;5314793;26;20004;-76
2024/04/16 11:54:17;;;;;;;4.32;0.90;;;9.90;99.90;;;;;;5345589;26;19997;-75
2024/04/16 11:56:42;;;;;;;4.82;1.00;;;10.10;99.90;;;;;;5318085;26;20009;-75
2024/04/16 11:59:08;;;;;;;2.15;0.80;;;10.40;99.90;;;;;;5317726;26;19997;-75
2024/04/16 12:01:33;;;;;;;3.45;0.82;;;10.70;99.90;;;;;;5317787;26;20466;-75
2024/04/16 12:03:59;;;;;;;5.05;0.90;;;10.80;99.90;;;;;;5348154;26;20007;-76
2024/04/16 12:06:24;;;;;;;4.30;0.90;;;10.80;99.90;;;;;;5347045;26;20009;-76
2024/04/16 12:08:50;;;;;;;1.63;0.60;;;10.80;99.90;;;;;;5347305;26;20033;-76
2024/04/16 12:11:16;;;;;;;3.03;0.93;;;11.10;99.90;;;;;;5317995;26;20034;-76
2024/04/16 12:13:41;;;;;;;1.15;0.50;;;11.00;99.90;;;;;;5347715;26;20009;-76
2024/04/16 12:16:07;;;;;;;1.85;0.70;;;10.90;99.90;;;;;;5316896;26;20008;-76
2024/04/16 12:18:32;;;;;;;3.53;1.00;;;10.90;99.90;;;;;;5348254;26;20001;-76
2024/04/16 12:20:58;;;;;;;1.98;0.60;;;11.00;99.90;;;;;;5347501;26;20004;-76
2024/04/16 12:23:23;;;;;;;2.72;0.70;;;10.90;99.90;;;;;;5347935;26;20016;-76
2024/04/16 12:25:49;;;;;;;3.63;0.80;;;10.90;99.90;;;;;;5347569;26;20016;-76
2024/04/16 12:28:15;;;;;;;4.25;0.80;;;11.10;99.90;;;;;;5343334;26;20425;-76
2024/04/16 12:30:40;;;;;;;3.05;0.90;;;11.30;99.90;;;;;;5315232;26;20005;-78
2024/04/16 12:33:06;;;;;;;5.22;0.77;;;11.40;99.90;;;;;;5316718;26;20454;-76
2024/04/16 12:35:32;;;;;;;6.22;1.10;;;11.20;99.90;;;;;;5346780;26;20005;-76
2024/04/16 12:37:58;;;;;;;3.42;0.63;;;11.50;99.90;;;;;;5316355;26;20047;-76
2024/04/16 12:40:23;;;;;;;1.27;0.45;;;11.60;99.90;;;;;;5317028;26;20009;-76
2024/04/16 12:42:50;;;;;;;5.68;0.73;;;11.90;99.90;;;;;;5316975;26;20318;-77
2024/04/16 12:45:17;;;;;;;2.88;0.60;;;12.30;99.90;;;;;;5317171;26;20007;-76
2024/04/16 12:47:43;;;;;;;4.72;0.85;;;12.60;99.50;;;;;;5347428;26;20055;-76
2024/04/16 12:50:09;;;;;;;3.75;0.60;;;12.50;99.40;;;;;;5346633;26;19993;-76
2024/04/16 12:52:34;;;;;;;3.33;0.68;;;12.60;99.60;;;;;;5317300;26;20018;-76